createdAt,value
2022-11-25T00:03:49.990Z,63.00
2022-11-25T00:13:54.548Z,81.10
2022-11-25T00:24:01.336Z,71.80
2022-11-25T00:34:04.990Z,68.10
2022-11-25T00:44:29.578Z,80.80
2022-11-25T00:54:34.005Z,79.20
2022-11-25T01:04:37.954Z,76.60
2022-11-25T01:14:41.500Z,69.40
2022-11-25T01:24:44.556Z,71.40
2022-11-25T01:34:47.690Z,57.90
2022-11-25T01:45:19.017Z,74.20
2022-11-25T01:55:30.956Z,61.70
2022-11-25T02:06:22.618Z,71.10
2022-11-25T02:16:26.424Z,64.50
2022-11-25T02:26:31.303Z,79.60
2022-11-25T02:36:34.914Z,65.20
2022-11-25T02:46:38.068Z,72.00
2022-11-25T02:56:41.497Z,75.30
2022-11-25T03:06:45.102Z,89.20
2022-11-25T03:16:48.274Z,86.30
2022-11-25T03:26:51.562Z,75.10
2022-11-25T03:36:55.108Z,72.40
2022-11-25T03:46:59.771Z,77.50
2022-11-25T03:57:03.263Z,69.70
2022-11-25T04:07:09.530Z,70.50
2022-11-25T04:17:12.784Z,65.60
2022-11-25T04:27:16.167Z,75.90
2022-11-25T04:37:19.447Z,73.00
2022-11-25T04:47:23.216Z,65.80
2022-11-25T04:57:26.425Z,67.10
2022-11-25T05:07:29.945Z,75.00
2022-11-25T05:17:33.886Z,65.70
2022-11-25T05:27:37.205Z,70.20
2022-11-25T05:37:45.070Z,71.30
2022-11-25T05:47:48.956Z,82.00
2022-11-25T05:57:54.785Z,71.00
2022-11-25T06:07:58.221Z,72.10
2022-11-25T06:18:02.415Z,68.30
2022-11-25T06:38:20.772Z,70.20
2022-11-25T06:48:23.989Z,71.40
2022-11-25T06:58:35.831Z,68.60
2022-11-25T07:08:39.668Z,89.20
2022-11-25T07:18:43.158Z,77.70
2022-11-25T07:28:46.209Z,77.80
2022-11-25T07:38:49.470Z,87.10
2022-11-25T07:48:54.010Z,97.60
2022-11-25T08:09:00.861Z,86.40
2022-11-25T08:19:07.160Z,86.30
2022-11-25T08:29:13.592Z,77.10
2022-11-25T08:49:42.321Z,73.60
2022-11-25T08:59:45.670Z,71.90
2022-11-25T09:09:49.893Z,77.10
2022-11-25T09:19:53.403Z,74.70
2022-11-25T09:29:56.491Z,78.40
2022-11-25T09:39:59.635Z,69.00
2022-11-25T09:50:27.733Z,69.20
2022-11-25T10:00:51.702Z,80.20
2022-11-25T10:11:03.891Z,77.90
2022-11-25T10:21:10.523Z,85.20
2022-11-25T10:31:27.263Z,77.60
2022-11-25T10:42:03.691Z,81.50
2022-11-25T10:52:12.281Z,66.20
2022-11-25T11:02:28.316Z,71.30
2022-11-25T11:12:33.046Z,67.90
2022-11-25T11:22:44.781Z,71.60
2022-11-25T11:33:28.121Z,59.90
2022-11-25T11:43:54.597Z,68.10
2022-11-25T11:54:10.251Z,77.80
2022-11-25T12:04:20.273Z,84.10
2022-11-25T12:14:44.261Z,82.00
2022-11-25T12:25:01.306Z,84.30
2022-11-25T12:35:10.875Z,88.40
2022-11-25T12:45:25.964Z,82.70
2022-11-25T13:06:16.462Z,96.60
2022-11-25T13:16:21.048Z,92.90
2022-11-25T13:37:47.871Z,90.90
2022-11-25T13:47:51.183Z,90.10
2022-11-25T13:58:41.758Z,102.20
2022-11-25T14:09:10.592Z,93.00
2022-11-25T14:20:00.589Z,80.40
2022-11-25T14:30:17.656Z,74.00
2022-11-25T14:40:27.455Z,80.00
2022-11-25T14:50:35.121Z,76.60
2022-11-25T15:01:57.158Z,76.60
2022-11-25T15:12:47.188Z,82.10
2022-11-25T15:45:43.190Z,85.70
2022-11-25T15:55:46.473Z,95.60
2022-11-25T16:05:57.305Z,89.40
2022-11-25T16:16:15.955Z,94.40
2022-11-25T16:26:32.448Z,100.70
2022-11-25T16:36:35.647Z,102.20
2022-11-25T16:46:38.892Z,110.50
2022-11-25T16:56:43.762Z,122.00
2022-11-25T17:07:09.808Z,108.30
2022-11-25T17:17:24.449Z,117.30
2022-11-25T17:27:31.259Z,119.80
2022-11-25T17:37:34.337Z,119.00
2022-11-25T17:47:37.416Z,109.50
2022-11-25T17:57:40.609Z,116.40
2022-11-25T18:07:46.836Z,107.80
2022-11-25T18:17:51.699Z,121.20
2022-11-25T18:27:57.056Z,123.50
2022-11-25T18:38:00.444Z,121.50
2022-11-25T18:48:14.839Z,144.10
2022-11-25T18:58:23.863Z,134.10
2022-11-25T19:08:27.494Z,143.40
2022-11-25T19:18:30.762Z,155.70
2022-11-25T19:28:34.488Z,150.30
2022-11-25T19:38:37.618Z,173.40
2022-11-25T19:48:40.839Z,154.20
2022-11-25T19:58:44.152Z,159.90
2022-11-25T20:08:47.560Z,149.10
2022-11-25T20:18:53.163Z,157.70
2022-11-25T20:28:56.330Z,148.60
2022-11-25T20:39:01.916Z,144.60
2022-11-25T20:49:21.044Z,159.90
2022-11-25T20:59:24.429Z,177.20
2022-11-25T21:09:35.114Z,158.10
2022-11-25T21:19:38.466Z,158.40
2022-11-25T21:29:43.549Z,151.30
2022-11-25T21:39:46.818Z,151.70
2022-11-25T21:49:50.931Z,140.50
2022-11-25T21:59:54.452Z,155.70
2022-11-25T22:09:57.502Z,151.40
2022-11-25T22:20:00.962Z,160.80
2022-11-25T22:30:05.763Z,154.80
2022-11-25T22:50:20.795Z,185.00
2022-11-25T23:00:31.672Z,190.10
2022-11-25T23:10:34.942Z,168.30
2022-11-25T23:20:39.836Z,183.60
2022-11-25T23:30:58.943Z,166.90
2022-11-25T23:41:02.075Z,174.40
2022-11-25T23:51:06.474Z,171.00
